Nearby METAR Reports

 

CYOW - Ottawa Intl, Ontario, Canada
Distance from station: NNW 27km
Updated: 07/30/2021 12:00pm
Few Clouds
Few Clouds
 Wind from NW
Wind: NW 28 km/h, Gust: 37 km/h
Temperature: 17°C
Dew Point: 8°C
Humidity: 56%
Barometer: 1012.2 hPa
Clouds: Few Clouds
Visibility: 24 km
Cloud details: Few Clouds 1067 m
Few Clouds 2743 m
2021/07/30 16:00 CYOW 301600Z 31015G20KT 15SM FEW035 FEW090 17/08 A2989 RMK SC1AC1 AC TR SLP125 DENSITY ALT 800FT
KMSS - Massena, New York, USA
Distance from station: ESE 54km
Updated: 07/30/2021 11:53am
Mostly cloudy
Mostly cloudy
 Wind from NW
Wind: NW 20 km/h
Temperature: 17°C
Dew Point: 8°C
Humidity: 56%
Barometer: 1011.9 hPa
Clouds: Mostly cloudy
Visibility: 16 km
Cloud details: Mostly cloudy 914 m
Mostly cloudy 2743 m
2021/07/30 15:53 KMSS 301553Z AUTO 31011KT 10SM BKN030 BKN090 17/08 A2988 RMK AO2 SLP119 T01670083
KOGS - Ogdensburg Intl, New York, USA
Distance from station: S 48km
Updated: 07/30/2021 12:35pm
Clear
Clear
 Wind from NW
Wind: NW 15 km/h, Gust: 30 km/h
Temperature: 18°C
Dew Point: 8°C
Humidity: 52%
Barometer: 1011.9 hPa
Clouds: Clear
Visibility: 16 km
2021/07/30 16:35 KOGS 301635Z AUTO 31008G16KT 270V340 10SM CLR 18/08 A2988 RMK AO2
 
CXKE - Kemptville, Ontario, Canada
Distance from station: SW 15km
Updated: 07/30/2021 12:00pm

 Wind from NW
Wind: NW 20 km/h, Gust: 35 km/h
Temperature: 17°C
Dew Point: 7°C
Humidity: 52%
2021/07/30 16:00 CXKE 301600Z AUTO 31011G19KT 17/07 RMK AO1 PK WND 31020/1517 SLP124 T01670070 51012